sensor_id;sensor_type;location;lat;lon;timestamp;P1;durP1;ratioP1;P2;durP2;ratioP2
19965;SDS011;10144;50.874;4.762;2024-02-14T00:00:29;7.50;;;3.00;;
19965;SDS011;10144;50.874;4.762;2024-02-14T00:02:57;11.13;;;2.90;;
19965;SDS011;10144;50.874;4.762;2024-02-14T00:05:23;5.37;;;2.90;;
19965;SDS011;10144;50.874;4.762;2024-02-14T00:10:21;5.40;;;2.67;;
19965;SDS011;10144;50.874;4.762;2024-02-14T00:12:48;8.57;;;3.20;;
19965;SDS011;10144;50.874;4.762;2024-02-14T00:15:14;9.17;;;3.27;;
19965;SDS011;10144;50.874;4.762;2024-02-14T00:20:09;6.33;;;3.07;;
19965;SDS011;10144;50.874;4.762;2024-02-14T00:22:43;7.10;;;3.20;;
19965;SDS011;10144;50.874;4.762;2024-02-14T00:25:14;9.77;;;3.10;;
19965;SDS011;10144;50.874;4.762;2024-02-14T00:27:43;8.10;;;3.30;;
19965;SDS011;10144;50.874;4.762;2024-02-14T00:32:41;8.87;;;3.47;;
19965;SDS011;10144;50.874;4.762;2024-02-14T00:37:39;7.67;;;2.80;;
19965;SDS011;10144;50.874;4.762;2024-02-14T00:40:06;7.23;;;2.90;;
19965;SDS011;10144;50.874;4.762;2024-02-14T00:42:33;10.10;;;2.90;;
19965;SDS011;10144;50.874;4.762;2024-02-14T00:45:02;7.10;;;2.90;;
19965;SDS011;10144;50.874;4.762;2024-02-14T00:47:29;7.33;;;3.00;;
19965;SDS011;10144;50.874;4.762;2024-02-14T00:49:58;8.73;;;3.27;;
19965;SDS011;10144;50.874;4.762;2024-02-14T00:54:55;6.27;;;2.93;;
19965;SDS011;10144;50.874;4.762;2024-02-14T00:57:28;9.80;;;3.03;;
19965;SDS011;10144;50.874;4.762;2024-02-14T00:59:54;5.93;;;2.63;;
19965;SDS011;10144;50.874;4.762;2024-02-14T01:02:29;5.97;;;2.87;;
19965;SDS011;10144;50.874;4.762;2024-02-14T01:04:55;6.10;;;2.80;;
19965;SDS011;10144;50.874;4.762;2024-02-14T01:07:24;6.73;;;2.80;;
19965;SDS011;10144;50.874;4.762;2024-02-14T01:09:49;7.13;;;2.83;;
19965;SDS011;10144;50.874;4.762;2024-02-14T01:17:32;8.10;;;3.50;;
19965;SDS011;10144;50.874;4.762;2024-02-14T01:20:02;7.57;;;3.07;;
19965;SDS011;10144;50.874;4.762;2024-02-14T01:22:28;5.73;;;3.13;;
19965;SDS011;10144;50.874;4.762;2024-02-14T01:24:54;5.97;;;2.87;;
19965;SDS011;10144;50.874;4.762;2024-02-14T01:27:23;9.00;;;3.30;;
19965;SDS011;10144;50.874;4.762;2024-02-14T01:29:55;4.90;;;2.73;;
19965;SDS011;10144;50.874;4.762;2024-02-14T01:34:57;9.60;;;3.40;;
19965;SDS011;10144;50.874;4.762;2024-02-14T01:37:32;8.93;;;3.40;;
19965;SDS011;10144;50.874;4.762;2024-02-14T01:42:31;9.53;;;3.73;;
19965;SDS011;10144;50.874;4.762;2024-02-14T01:47:31;10.83;;;3.73;;
19965;SDS011;10144;50.874;4.762;2024-02-14T01:49:59;6.10;;;3.17;;
19965;SDS011;10144;50.874;4.762;2024-02-14T01:52:27;13.67;;;3.57;;
19965;SDS011;10144;50.874;4.762;2024-02-14T01:54:58;6.33;;;3.40;;
19965;SDS011;10144;50.874;4.762;2024-02-14T01:59:53;11.50;;;3.50;;
19965;SDS011;10144;50.874;4.762;2024-02-14T02:04:55;13.93;;;4.17;;
19965;SDS011;10144;50.874;4.762;2024-02-14T02:07:21;9.03;;;4.30;;
19965;SDS011;10144;50.874;4.762;2024-02-14T02:09:47;9.73;;;4.03;;
19965;SDS011;10144;50.874;4.762;2024-02-14T02:12:14;10.97;;;4.30;;
19965;SDS011;10144;50.874;4.762;2024-02-14T02:17:10;8.70;;;3.97;;
19965;SDS011;10144;50.874;4.762;2024-02-14T02:22:28;6.73;;;3.93;;
19965;SDS011;10144;50.874;4.762;2024-02-14T02:25:00;7.73;;;4.00;;
19965;SDS011;10144;50.874;4.762;2024-02-14T02:27:36;6.50;;;3.73;;
19965;SDS011;10144;50.874;4.762;2024-02-14T02:32:34;8.00;;;3.63;;
19965;SDS011;10144;50.874;4.762;2024-02-14T02:37:30;7.93;;;3.43;;
19965;SDS011;10144;50.874;4.762;2024-02-14T02:39:58;9.30;;;4.07;;
19965;SDS011;10144;50.874;4.762;2024-02-14T02:42:27;11.07;;;4.20;;
19965;SDS011;10144;50.874;4.762;2024-02-14T02:45:00;7.73;;;3.87;;
19965;SDS011;10144;50.874;4.762;2024-02-14T02:50:03;6.07;;;3.67;;
19965;SDS011;10144;50.874;4.762;2024-02-14T02:52:29;12.47;;;4.23;;
19965;SDS011;10144;50.874;4.762;2024-02-14T02:54:57;8.00;;;4.17;;
19965;SDS011;10144;50.874;4.762;2024-02-14T02:57:24;10.47;;;4.50;;
19965;SDS011;10144;50.874;4.762;2024-02-14T02:59:54;7.70;;;4.30;;
19965;SDS011;10144;50.874;4.762;2024-02-14T03:02:26;10.03;;;4.00;;
19965;SDS011;10144;50.874;4.762;2024-02-14T03:04:53;7.90;;;4.07;;
19965;SDS011;10144;50.874;4.762;2024-02-14T03:07:22;8.63;;;4.40;;
19965;SDS011;10144;50.874;4.762;2024-02-14T03:09:51;9.90;;;4.43;;
19965;SDS011;10144;50.874;4.762;2024-02-14T03:12:20;8.63;;;4.50;;
19965;SDS011;10144;50.874;4.762;2024-02-14T03:14:49;11.20;;;5.10;;
19965;SDS011;10144;50.874;4.762;2024-02-14T03:17:18;11.33;;;4.60;;
19965;SDS011;10144;50.874;4.762;2024-02-14T03:22:18;10.10;;;4.97;;
19965;SDS011;10144;50.874;4.762;2024-02-14T03:24:44;9.73;;;4.70;;
19965;SDS011;10144;50.874;4.762;2024-02-14T03:27:14;12.70;;;5.10;;
19965;SDS011;10144;50.874;4.762;2024-02-14T03:29:45;10.43;;;4.80;;
19965;SDS011;10144;50.874;4.762;2024-02-14T03:32:14;9.57;;;5.20;;
19965;SDS011;10144;50.874;4.762;2024-02-14T03:34:43;12.50;;;5.17;;
19965;SDS011;10144;50.874;4.762;2024-02-14T03:37:10;16.00;;;5.37;;
19965;SDS011;10144;50.874;4.762;2024-02-14T03:39:35;9.83;;;5.37;;
19965;SDS011;10144;50.874;4.762;2024-02-14T03:42:03;12.93;;;5.40;;
19965;SDS011;10144;50.874;4.762;2024-02-14T03:44:34;14.83;;;5.57;;
19965;SDS011;10144;50.874;4.762;2024-02-14T03:47:03;15.73;;;5.47;;
19965;SDS011;10144;50.874;4.762;2024-02-14T03:49:32;13.20;;;5.67;;
19965;SDS011;10144;50.874;4.762;2024-02-14T03:51:58;13.37;;;5.80;;
19965;SDS011;10144;50.874;4.762;2024-02-14T03:54:29;10.60;;;5.23;;
19965;SDS011;10144;50.874;4.762;2024-02-14T03:56:54;14.17;;;5.90;;
19965;SDS011;10144;50.874;4.762;2024-02-14T03:59:21;16.80;;;6.00;;
19965;SDS011;10144;50.874;4.762;2024-02-14T04:01:52;11.53;;;5.83;;
19965;SDS011;10144;50.874;4.762;2024-02-14T04:04:36;12.20;;;5.93;;
19965;SDS011;10144;50.874;4.762;2024-02-14T04:07:05;12.93;;;5.60;;
19965;SDS011;10144;50.874;4.762;2024-02-14T04:12:03;11.73;;;5.73;;
19965;SDS011;10144;50.874;4.762;2024-02-14T04:14:36;14.10;;;5.80;;
19965;SDS011;10144;50.874;4.762;2024-02-14T04:17:08;12.03;;;5.67;;
19965;SDS011;10144;50.874;4.762;2024-02-14T04:22:23;12.63;;;5.93;;
19965;SDS011;10144;50.874;4.762;2024-02-14T04:24:54;16.77;;;5.90;;
19965;SDS011;10144;50.874;4.762;2024-02-14T04:27:24;18.73;;;6.20;;
19965;SDS011;10144;50.874;4.762;2024-02-14T04:29:56;11.77;;;5.90;;
19965;SDS011;10144;50.874;4.762;2024-02-14T04:32:23;16.17;;;6.50;;
19965;SDS011;10144;50.874;4.762;2024-02-14T04:34:52;17.23;;;6.87;;
19965;SDS011;10144;50.874;4.762;2024-02-14T04:39:53;14.90;;;6.40;;
19965;SDS011;10144;50.874;4.762;2024-02-14T04:42:18;14.23;;;6.80;;
19965;SDS011;10144;50.874;4.762;2024-02-14T04:44:50;12.47;;;6.50;;
19965;SDS011;10144;50.874;4.762;2024-02-14T04:47:22;15.60;;;6.43;;
19965;SDS011;10144;50.874;4.762;2024-02-14T04:49:48;14.90;;;6.40;;
19965;SDS011;10144;50.874;4.762;2024-02-14T04:52:14;13.77;;;6.20;;
19965;SDS011;10144;50.874;4.762;2024-02-14T04:54:44;11.93;;;6.57;;
19965;SDS011;10144;50.874;4.762;2024-02-14T04:59:43;12.97;;;6.60;;
19965;SDS011;10144;50.874;4.762;2024-02-14T05:02:09;14.67;;;7.00;;
19965;SDS011;10144;50.874;4.762;2024-02-14T05:04:39;14.47;;;7.00;;
19965;SDS011;10144;50.874;4.762;2024-02-14T05:09:34;15.27;;;6.67;;
19965;SDS011;10144;50.874;4.762;2024-02-14T05:12:05;16.17;;;6.80;;
19965;SDS011;10144;50.874;4.762;2024-02-14T05:14:37;15.53;;;7.10;;
19965;SDS011;10144;50.874;4.762;2024-02-14T05:17:07;17.73;;;6.77;;
19965;SDS011;10144;50.874;4.762;2024-02-14T05:19:41;13.77;;;6.80;;
19965;SDS011;10144;50.874;4.762;2024-02-14T05:22:10;17.53;;;6.60;;
19965;SDS011;10144;50.874;4.762;2024-02-14T05:24:35;17.53;;;7.27;;
19965;SDS011;10144;50.874;4.762;2024-02-14T05:27:08;13.30;;;6.97;;
19965;SDS011;10144;50.874;4.762;2024-02-14T05:29:37;18.40;;;7.30;;
19965;SDS011;10144;50.874;4.762;2024-02-14T05:34:37;17.53;;;7.53;;
19965;SDS011;10144;50.874;4.762;2024-02-14T05:37:06;16.60;;;7.40;;
19965;SDS011;10144;50.874;4.762;2024-02-14T05:39:34;17.80;;;8.03;;
19965;SDS011;10144;50.874;4.762;2024-02-14T05:42:02;17.90;;;7.87;;
19965;SDS011;10144;50.874;4.762;2024-02-14T05:47:00;15.63;;;7.53;;
19965;SDS011;10144;50.874;4.762;2024-02-14T05:49:29;16.80;;;7.53;;
19965;SDS011;10144;50.874;4.762;2024-02-14T05:51:58;19.27;;;7.73;;
19965;SDS011;10144;50.874;4.762;2024-02-14T05:54:30;19.80;;;7.83;;
19965;SDS011;10144;50.874;4.762;2024-02-14T05:56:59;16.47;;;7.73;;
19965;SDS011;10144;50.874;4.762;2024-02-14T05:59:28;17.10;;;8.37;;
19965;SDS011;10144;50.874;4.762;2024-02-14T06:01:57;14.60;;;7.43;;
19965;SDS011;10144;50.874;4.762;2024-02-14T06:04:26;14.87;;;7.40;;
19965;SDS011;10144;50.874;4.762;2024-02-14T06:06:54;17.43;;;7.90;;
19965;SDS011;10144;50.874;4.762;2024-02-14T06:09:23;16.63;;;7.70;;
19965;SDS011;10144;50.874;4.762;2024-02-14T06:11:55;18.20;;;7.80;;
19965;SDS011;10144;50.874;4.762;2024-02-14T06:19:22;16.00;;;7.83;;
19965;SDS011;10144;50.874;4.762;2024-02-14T06:21:51;17.40;;;8.50;;
19965;SDS011;10144;50.874;4.762;2024-02-14T06:24:18;18.73;;;7.87;;
19965;SDS011;10144;50.874;4.762;2024-02-14T06:29:12;15.97;;;7.77;;
19965;SDS011;10144;50.874;4.762;2024-02-14T06:34:08;17.97;;;7.90;;
19965;SDS011;10144;50.874;4.762;2024-02-14T06:36:36;18.37;;;7.53;;
19965;SDS011;10144;50.874;4.762;2024-02-14T06:39:06;20.00;;;7.70;;
19965;SDS011;10144;50.874;4.762;2024-02-14T06:41:34;13.63;;;6.93;;
19965;SDS011;10144;50.874;4.762;2024-02-14T06:44:03;17.73;;;6.40;;
19965;SDS011;10144;50.874;4.762;2024-02-14T06:46:44;14.13;;;7.13;;
19965;SDS011;10144;50.874;4.762;2024-02-14T06:49:09;11.47;;;5.97;;
19965;SDS011;10144;50.874;4.762;2024-02-14T06:51:38;14.67;;;6.47;;
19965;SDS011;10144;50.874;4.762;2024-02-14T06:54:10;16.93;;;6.43;;
19965;SDS011;10144;50.874;4.762;2024-02-14T06:56:43;16.13;;;6.30;;
19965;SDS011;10144;50.874;4.762;2024-02-14T06:59:12;14.67;;;6.17;;
19965;SDS011;10144;50.874;4.762;2024-02-14T07:04:12;14.23;;;6.07;;
19965;SDS011;10144;50.874;4.762;2024-02-14T07:06:38;13.93;;;6.37;;
19965;SDS011;10144;50.874;4.762;2024-02-14T07:09:07;13.67;;;6.47;;
19965;SDS011;10144;50.874;4.762;2024-02-14T07:11:34;16.63;;;6.50;;
19965;SDS011;10144;50.874;4.762;2024-02-14T07:14:04;13.27;;;6.30;;
19965;SDS011;10144;50.874;4.762;2024-02-14T07:19:04;18.00;;;6.47;;
19965;SDS011;10144;50.874;4.762;2024-02-14T07:21:32;17.83;;;6.70;;
19965;SDS011;10144;50.874;4.762;2024-02-14T07:23:58;12.37;;;6.30;;
19965;SDS011;10144;50.874;4.762;2024-02-14T07:26:27;15.03;;;6.20;;
19965;SDS011;10144;50.874;4.762;2024-02-14T07:28:56;15.10;;;6.20;;
19965;SDS011;10144;50.874;4.762;2024-02-14T07:33:54;14.90;;;5.87;;
19965;SDS011;10144;50.874;4.762;2024-02-14T07:36:23;15.23;;;5.70;;
19965;SDS011;10144;50.874;4.762;2024-02-14T07:46:22;15.60;;;6.43;;
19965;SDS011;10144;50.874;4.762;2024-02-14T07:48:51;17.77;;;6.20;;
19965;SDS011;10144;50.874;4.762;2024-02-14T07:51:20;12.30;;;5.70;;
19965;SDS011;10144;50.874;4.762;2024-02-14T07:53:46;14.90;;;6.03;;
19965;SDS011;10144;50.874;4.762;2024-02-14T07:56:11;13.73;;;6.03;;
19965;SDS011;10144;50.874;4.762;2024-02-14T08:01:08;11.07;;;5.53;;
19965;SDS011;10144;50.874;4.762;2024-02-14T08:03:40;13.90;;;5.47;;
19965;SDS011;10144;50.874;4.762;2024-02-14T08:06:06;12.33;;;6.10;;
19965;SDS011;10144;50.874;4.762;2024-02-14T08:08:37;12.83;;;6.30;;
19965;SDS011;10144;50.874;4.762;2024-02-14T08:13:38;13.10;;;5.97;;
19965;SDS011;10144;50.874;4.762;2024-02-14T08:16:10;13.00;;;6.17;;
19965;SDS011;10144;50.874;4.762;2024-02-14T08:18:39;15.77;;;6.27;;
19965;SDS011;10144;50.874;4.762;2024-02-14T08:21:06;14.77;;;6.00;;
19965;SDS011;10144;50.874;4.762;2024-02-14T08:23:33;19.83;;;5.97;;
19965;SDS011;10144;50.874;4.762;2024-02-14T08:26:00;13.27;;;5.77;;
19965;SDS011;10144;50.874;4.762;2024-02-14T08:31:57;14.77;;;5.90;;
19965;SDS011;10144;50.874;4.762;2024-02-14T08:37:45;13.70;;;6.87;;
19965;SDS011;10144;50.874;4.762;2024-02-14T08:43:46;14.30;;;6.20;;
19965;SDS011;10144;50.874;4.762;2024-02-14T08:49:33;15.53;;;6.87;;
19965;SDS011;10144;50.874;4.762;2024-02-14T08:55:21;16.53;;;6.87;;
19965;SDS011;10144;50.874;4.762;2024-02-14T09:01:09;14.73;;;6.73;;
19965;SDS011;10144;50.874;4.762;2024-02-14T09:06:58;15.33;;;7.10;;
19965;SDS011;10144;50.874;4.762;2024-02-14T09:12:46;18.87;;;6.87;;
19965;SDS011;10144;50.874;4.762;2024-02-14T09:18:34;13.87;;;6.67;;
19965;SDS011;10144;50.874;4.762;2024-02-14T09:24:22;16.87;;;8.13;;
19965;SDS011;10144;50.874;4.762;2024-02-14T09:30:10;17.47;;;7.73;;
19965;SDS011;10144;50.874;4.762;2024-02-14T09:35:58;18.53;;;8.27;;
19965;SDS011;10144;50.874;4.762;2024-02-14T09:41:46;18.00;;;8.40;;
19965;SDS011;10144;50.874;4.762;2024-02-14T09:47:42;20.67;;;8.20;;
19965;SDS011;10144;50.874;4.762;2024-02-14T09:53:32;19.63;;;7.90;;
19965;SDS011;10144;50.874;4.762;2024-02-14T09:59:24;18.57;;;7.63;;
19965;SDS011;10144;50.874;4.762;2024-02-14T10:05:15;14.47;;;6.97;;
19965;SDS011;10144;50.874;4.762;2024-02-14T10:11:04;14.33;;;6.33;;
19965;SDS011;10144;50.874;4.762;2024-02-14T10:16:52;12.70;;;5.57;;
19965;SDS011;10144;50.874;4.762;2024-02-14T10:22:39;14.50;;;5.17;;
19965;SDS011;10144;50.874;4.762;2024-02-14T10:28:28;10.07;;;4.67;;
19965;SDS011;10144;50.874;4.762;2024-02-14T10:34:16;13.63;;;5.10;;
19965;SDS011;10144;50.874;4.762;2024-02-14T10:40:14;8.30;;;4.57;;
19965;SDS011;10144;50.874;4.762;2024-02-14T10:46:05;10.77;;;4.87;;
19965;SDS011;10144;50.874;4.762;2024-02-14T10:51:58;11.60;;;4.40;;
19965;SDS011;10144;50.874;4.762;2024-02-14T10:57:51;8.97;;;4.03;;
19965;SDS011;10144;50.874;4.762;2024-02-14T11:03:43;5.50;;;3.30;;
19965;SDS011;10144;50.874;4.762;2024-02-14T11:09:37;6.10;;;3.60;;
19965;SDS011;10144;50.874;4.762;2024-02-14T11:15:35;5.57;;;2.60;;
19965;SDS011;10144;50.874;4.762;2024-02-14T11:21:27;4.10;;;2.37;;
19965;SDS011;10144;50.874;4.762;2024-02-14T11:27:54;3.73;;;2.07;;
19965;SDS011;10144;50.874;4.762;2024-02-14T11:34:19;3.13;;;2.10;;
19965;SDS011;10144;50.874;4.762;2024-02-14T11:40:14;4.03;;;2.23;;
19965;SDS011;10144;50.874;4.762;2024-02-14T11:46:08;3.70;;;2.30;;
19965;SDS011;10144;50.874;4.762;2024-02-14T11:51:57;3.77;;;2.27;;
19965;SDS011;10144;50.874;4.762;2024-02-14T11:57:45;4.67;;;2.13;;
19965;SDS011;10144;50.874;4.762;2024-02-14T12:03:35;4.97;;;2.07;;
19965;SDS011;10144;50.874;4.762;2024-02-14T12:09:25;2.47;;;1.83;;
19965;SDS011;10144;50.874;4.762;2024-02-14T12:25:30;2.97;;;2.00;;
19965;SDS011;10144;50.874;4.762;2024-02-14T12:41:35;4.17;;;2.40;;
19965;SDS011;10144;50.874;4.762;2024-02-14T12:44:04;4.57;;;2.75;;
19965;SDS011;10144;50.874;4.762;2024-02-14T12:46:31;6.45;;;2.50;;
19965;SDS011;10144;50.874;4.762;2024-02-14T12:48:57;5.10;;;2.93;;
19965;SDS011;10144;50.874;4.762;2024-02-14T12:51:22;10.47;;;3.50;;
19965;SDS011;10144;50.874;4.762;2024-02-14T12:53:53;5.63;;;3.20;;
19965;SDS011;10144;50.874;4.762;2024-02-14T12:56:18;8.17;;;3.83;;
19965;SDS011;10144;50.874;4.762;2024-02-14T12:58:46;5.95;;;3.33;;
19965;SDS011;10144;50.874;4.762;2024-02-14T13:01:13;7.15;;;4.25;;
19965;SDS011;10144;50.874;4.762;2024-02-14T13:03:39;8.00;;;3.95;;
19965;SDS011;10144;50.874;4.762;2024-02-14T13:06:05;9.82;;;4.50;;
19965;SDS011;10144;50.874;4.762;2024-02-14T13:08:31;11.27;;;4.60;;
19965;SDS011;10144;50.874;4.762;2024-02-14T13:10:57;8.73;;;3.92;;
19965;SDS011;10144;50.874;4.762;2024-02-14T13:13:23;8.85;;;4.32;;
19965;SDS011;10144;50.874;4.762;2024-02-14T13:15:49;8.35;;;4.53;;
19965;SDS011;10144;50.874;4.762;2024-02-14T13:18:14;12.60;;;5.10;;
19965;SDS011;10144;50.874;4.762;2024-02-14T13:20:41;12.85;;;4.90;;
19965;SDS011;10144;50.874;4.762;2024-02-14T13:23:09;12.03;;;5.80;;
19965;SDS011;10144;50.874;4.762;2024-02-14T13:25:35;10.38;;;5.55;;
19965;SDS011;10144;50.874;4.762;2024-02-14T13:28:02;11.07;;;4.70;;
19965;SDS011;10144;50.874;4.762;2024-02-14T13:30:31;10.90;;;5.13;;
19965;SDS011;10144;50.874;4.762;2024-02-14T13:32:57;11.10;;;5.05;;
19965;SDS011;10144;50.874;4.762;2024-02-14T13:35:23;9.23;;;5.18;;
19965;SDS011;10144;50.874;4.762;2024-02-14T13:37:49;10.43;;;4.65;;
19965;SDS011;10144;50.874;4.762;2024-02-14T13:40:16;11.95;;;5.70;;
19965;SDS011;10144;50.874;4.762;2024-02-14T13:42:48;11.13;;;5.65;;
19965;SDS011;10144;50.874;4.762;2024-02-14T13:45:15;12.18;;;5.88;;
19965;SDS011;10144;50.874;4.762;2024-02-14T13:47:42;10.27;;;5.18;;
19965;SDS011;10144;50.874;4.762;2024-02-14T13:50:14;15.63;;;6.00;;
19965;SDS011;10144;50.874;4.762;2024-02-14T13:52:43;10.68;;;5.55;;
19965;SDS011;10144;50.874;4.762;2024-02-14T13:55:10;12.40;;;5.75;;
19965;SDS011;10144;50.874;4.762;2024-02-14T13:57:39;13.05;;;6.00;;
19965;SDS011;10144;50.874;4.762;2024-02-14T14:00:07;14.07;;;5.95;;
19965;SDS011;10144;50.874;4.762;2024-02-14T14:02:40;10.10;;;5.80;;
19965;SDS011;10144;50.874;4.762;2024-02-14T14:05:12;16.60;;;5.80;;
19965;SDS011;10144;50.874;4.762;2024-02-14T14:10:10;12.63;;;5.72;;
19965;SDS011;10144;50.874;4.762;2024-02-14T14:17:35;13.07;;;5.68;;
19965;SDS011;10144;50.874;4.762;2024-02-14T14:20:03;10.80;;;5.68;;
19965;SDS011;10144;50.874;4.762;2024-02-14T14:22:29;9.65;;;5.13;;
19965;SDS011;10144;50.874;4.762;2024-02-14T14:24:55;10.48;;;5.72;;
19965;SDS011;10144;50.874;4.762;2024-02-14T14:27:24;8.80;;;4.63;;
19965;SDS011;10144;50.874;4.762;2024-02-14T14:29:51;9.70;;;5.40;;
19965;SDS011;10144;50.874;4.762;2024-02-14T14:32:19;10.27;;;5.50;;
19965;SDS011;10144;50.874;4.762;2024-02-14T14:34:52;10.60;;;4.80;;
19965;SDS011;10144;50.874;4.762;2024-02-14T14:37:20;11.25;;;5.10;;
19965;SDS011;10144;50.874;4.762;2024-02-14T14:39:47;10.07;;;4.85;;
19965;SDS011;10144;50.874;4.762;2024-02-14T14:42:14;9.60;;;5.10;;
19965;SDS011;10144;50.874;4.762;2024-02-14T14:44:39;11.38;;;5.13;;
19965;SDS011;10144;50.874;4.762;2024-02-14T14:47:10;9.27;;;4.55;;
19965;SDS011;10144;50.874;4.762;2024-02-14T14:49:39;9.88;;;4.95;;
19965;SDS011;10144;50.874;4.762;2024-02-14T14:54:35;9.82;;;5.20;;
19965;SDS011;10144;50.874;4.762;2024-02-14T14:57:02;11.98;;;5.32;;
19965;SDS011;10144;50.874;4.762;2024-02-14T14:59:35;9.48;;;5.22;;
19965;SDS011;10144;50.874;4.762;2024-02-14T15:04:30;9.43;;;5.22;;
19965;SDS011;10144;50.874;4.762;2024-02-14T15:06:59;12.10;;;5.22;;
19965;SDS011;10144;50.874;4.762;2024-02-14T15:09:25;10.07;;;5.00;;
19965;SDS011;10144;50.874;4.762;2024-02-14T15:11:54;10.18;;;4.38;;
19965;SDS011;10144;50.874;4.762;2024-02-14T15:14:23;8.32;;;4.45;;
19965;SDS011;10144;50.874;4.762;2024-02-14T15:16:49;10.23;;;4.93;;
19965;SDS011;10144;50.874;4.762;2024-02-14T15:19:15;7.82;;;4.30;;
19965;SDS011;10144;50.874;4.762;2024-02-14T15:21:41;9.50;;;4.70;;
19965;SDS011;10144;50.874;4.762;2024-02-14T15:24:08;8.07;;;4.18;;
19965;SDS011;10144;50.874;4.762;2024-02-14T15:26:35;6.38;;;4.28;;
19965;SDS011;10144;50.874;4.762;2024-02-14T15:29:17;10.20;;;4.50;;
19965;SDS011;10144;50.874;4.762;2024-02-14T15:32:02;7.30;;;4.22;;
19965;SDS011;10144;50.874;4.762;2024-02-14T15:34:46;8.55;;;4.10;;
19965;SDS011;10144;50.874;4.762;2024-02-14T15:37:11;10.38;;;3.88;;
19965;SDS011;10144;50.874;4.762;2024-02-14T15:39:37;11.43;;;4.30;;
19965;SDS011;10144;50.874;4.762;2024-02-14T15:42:03;9.00;;;4.50;;
19965;SDS011;10144;50.874;4.762;2024-02-14T15:44:29;10.25;;;4.38;;
19965;SDS011;10144;50.874;4.762;2024-02-14T15:46:59;9.60;;;4.13;;
19965;SDS011;10144;50.874;4.762;2024-02-14T15:49:24;10.40;;;4.47;;
19965;SDS011;10144;50.874;4.762;2024-02-14T15:51:51;8.98;;;4.13;;
19965;SDS011;10144;50.874;4.762;2024-02-14T15:54:16;9.80;;;4.25;;
19965;SDS011;10144;50.874;4.762;2024-02-14T15:56:42;8.30;;;3.95;;
19965;SDS011;10144;50.874;4.762;2024-02-14T15:59:08;9.55;;;4.85;;
19965;SDS011;10144;50.874;4.762;2024-02-14T16:01:34;9.45;;;4.20;;
19965;SDS011;10144;50.874;4.762;2024-02-14T16:03:59;8.85;;;3.88;;
19965;SDS011;10144;50.874;4.762;2024-02-14T16:06:25;9.27;;;4.05;;
19965;SDS011;10144;50.874;4.762;2024-02-14T16:08:51;9.38;;;4.30;;
19965;SDS011;10144;50.874;4.762;2024-02-14T16:11:17;9.40;;;4.07;;
19965;SDS011;10144;50.874;4.762;2024-02-14T16:13:43;8.40;;;4.60;;
19965;SDS011;10144;50.874;4.762;2024-02-14T16:16:09;11.43;;;4.45;;
19965;SDS011;10144;50.874;4.762;2024-02-14T16:18:35;12.50;;;4.40;;
19965;SDS011;10144;50.874;4.762;2024-02-14T16:21:01;10.85;;;4.03;;
19965;SDS011;10144;50.874;4.762;2024-02-14T16:23:27;8.25;;;4.30;;
19965;SDS011;10144;50.874;4.762;2024-02-14T16:25:53;10.40;;;4.35;;
19965;SDS011;10144;50.874;4.762;2024-02-14T16:28:19;10.32;;;4.20;;
19965;SDS011;10144;50.874;4.762;2024-02-14T16:30:46;11.77;;;5.07;;
19965;SDS011;10144;50.874;4.762;2024-02-14T16:33:11;10.95;;;4.78;;
19965;SDS011;10144;50.874;4.762;2024-02-14T16:35:37;11.38;;;5.03;;
19965;SDS011;10144;50.874;4.762;2024-02-14T16:38:03;11.32;;;4.53;;
19965;SDS011;10144;50.874;4.762;2024-02-14T16:40:28;10.82;;;4.20;;
19965;SDS011;10144;50.874;4.762;2024-02-14T16:42:56;11.57;;;4.30;;
19965;SDS011;10144;50.874;4.762;2024-02-14T16:45:25;9.77;;;4.45;;
19965;SDS011;10144;50.874;4.762;2024-02-14T16:47:51;9.43;;;4.60;;
19965;SDS011;10144;50.874;4.762;2024-02-14T16:50:17;12.07;;;4.40;;
19965;SDS011;10144;50.874;4.762;2024-02-14T16:52:43;10.07;;;5.00;;
19965;SDS011;10144;50.874;4.762;2024-02-14T16:55:09;9.63;;;4.95;;
19965;SDS011;10144;50.874;4.762;2024-02-14T16:57:35;14.68;;;4.93;;
19965;SDS011;10144;50.874;4.762;2024-02-14T17:00:02;10.85;;;5.03;;
19965;SDS011;10144;50.874;4.762;2024-02-14T17:02:29;10.68;;;4.75;;
19965;SDS011;10144;50.874;4.762;2024-02-14T17:04:55;13.13;;;4.95;;
19965;SDS011;10144;50.874;4.762;2024-02-14T17:07:21;11.32;;;4.75;;
19965;SDS011;10144;50.874;4.762;2024-02-14T17:09:46;13.65;;;5.25;;
19965;SDS011;10144;50.874;4.762;2024-02-14T17:12:12;13.40;;;5.22;;
19965;SDS011;10144;50.874;4.762;2024-02-14T17:14:38;16.95;;;5.40;;
19965;SDS011;10144;50.874;4.762;2024-02-14T17:17:03;9.73;;;4.60;;
19965;SDS011;10144;50.874;4.762;2024-02-14T17:19:29;12.82;;;4.88;;
19965;SDS011;10144;50.874;4.762;2024-02-14T17:21:55;10.02;;;4.93;;
19965;SDS011;10144;50.874;4.762;2024-02-14T17:24:20;14.70;;;4.90;;
19965;SDS011;10144;50.874;4.762;2024-02-14T17:26:48;13.05;;;5.00;;
19965;SDS011;10144;50.874;4.762;2024-02-14T17:29:14;9.70;;;4.95;;
19965;SDS011;10144;50.874;4.762;2024-02-14T17:31:40;13.52;;;4.45;;
19965;SDS011;10144;50.874;4.762;2024-02-14T17:34:06;13.63;;;5.72;;
19965;SDS011;10144;50.874;4.762;2024-02-14T17:36:31;14.90;;;4.68;;
19965;SDS011;10144;50.874;4.762;2024-02-14T17:38:57;13.55;;;5.30;;
19965;SDS011;10144;50.874;4.762;2024-02-14T17:41:27;15.20;;;5.30;;
19965;SDS011;10144;50.874;4.762;2024-02-14T17:43:53;17.27;;;5.15;;
19965;SDS011;10144;50.874;4.762;2024-02-14T17:46:19;13.30;;;5.20;;
19965;SDS011;10144;50.874;4.762;2024-02-14T17:48:45;14.32;;;5.30;;
19965;SDS011;10144;50.874;4.762;2024-02-14T17:51:13;10.30;;;4.60;;
19965;SDS011;10144;50.874;4.762;2024-02-14T17:53:39;11.73;;;5.20;;
19965;SDS011;10144;50.874;4.762;2024-02-14T17:56:04;13.35;;;5.25;;
19965;SDS011;10144;50.874;4.762;2024-02-14T17:58:30;10.10;;;5.00;;
19965;SDS011;10144;50.874;4.762;2024-02-14T18:00:56;16.40;;;4.95;;
19965;SDS011;10144;50.874;4.762;2024-02-14T18:03:23;11.20;;;5.20;;
19965;SDS011;10144;50.874;4.762;2024-02-14T18:05:49;14.20;;;5.03;;
19965;SDS011;10144;50.874;4.762;2024-02-14T18:08:14;10.88;;;5.10;;
19965;SDS011;10144;50.874;4.762;2024-02-14T18:10:40;15.57;;;5.40;;
19965;SDS011;10144;50.874;4.762;2024-02-14T18:13:08;14.27;;;5.35;;
19965;SDS011;10144;50.874;4.762;2024-02-14T18:15:34;14.90;;;5.97;;
19965;SDS011;10144;50.874;4.762;2024-02-14T18:18:00;13.00;;;5.38;;
19965;SDS011;10144;50.874;4.762;2024-02-14T18:20:26;16.60;;;7.18;;
19965;SDS011;10144;50.874;4.762;2024-02-14T18:22:53;16.17;;;8.05;;
19965;SDS011;10144;50.874;4.762;2024-02-14T18:25:19;14.48;;;5.65;;
19965;SDS011;10144;50.874;4.762;2024-02-14T18:27:44;14.23;;;6.70;;
19965;SDS011;10144;50.874;4.762;2024-02-14T18:30:10;15.63;;;6.40;;
19965;SDS011;10144;50.874;4.762;2024-02-14T18:32:37;16.83;;;5.55;;
19965;SDS011;10144;50.874;4.762;2024-02-14T18:35:02;14.80;;;6.40;;
19965;SDS011;10144;50.874;4.762;2024-02-14T18:37:28;13.10;;;5.75;;
19965;SDS011;10144;50.874;4.762;2024-02-14T18:39:54;11.88;;;6.30;;
19965;SDS011;10144;50.874;4.762;2024-02-14T18:42:22;17.38;;;5.25;;
19965;SDS011;10144;50.874;4.762;2024-02-14T18:44:48;16.35;;;5.30;;
19965;SDS011;10144;50.874;4.762;2024-02-14T18:47:13;11.98;;;5.10;;
19965;SDS011;10144;50.874;4.762;2024-02-14T18:49:39;17.33;;;5.10;;
19965;SDS011;10144;50.874;4.762;2024-02-14T18:52:09;13.32;;;5.20;;
19965;SDS011;10144;50.874;4.762;2024-02-14T18:54:38;15.93;;;5.20;;
19965;SDS011;10144;50.874;4.762;2024-02-14T18:57:03;14.95;;;5.07;;
19965;SDS011;10144;50.874;4.762;2024-02-14T18:59:33;13.52;;;5.10;;
19965;SDS011;10144;50.874;4.762;2024-02-14T19:02:05;13.50;;;4.90;;
19965;SDS011;10144;50.874;4.762;2024-02-14T19:04:31;14.70;;;5.38;;